createdAt,value
2018-07-22T00:00:33.193Z,20.00
2018-07-22T00:03:01.531Z,20.00
2018-07-22T00:05:31.975Z,19.90
2018-07-22T00:08:00.305Z,20.00
2018-07-22T00:10:30.427Z,20.10
2018-07-22T00:12:59.945Z,20.00
2018-07-22T00:15:28.180Z,20.00
2018-07-22T00:17:56.169Z,19.90
2018-07-22T00:20:24.605Z,19.90
2018-07-22T00:22:52.585Z,19.90
2018-07-22T00:25:20.936Z,19.90
2018-07-22T00:27:52.404Z,19.90
2018-07-22T00:30:20.748Z,19.90
2018-07-22T00:32:49.115Z,19.90
2018-07-22T00:35:17.273Z,19.90
2018-07-22T00:37:45.829Z,19.80
2018-07-22T00:40:14.138Z,19.70
2018-07-22T00:42:42.716Z,19.50
2018-07-22T00:45:12.484Z,19.40
2018-07-22T00:47:41.294Z,19.40
2018-07-22T00:50:10.040Z,19.40
2018-07-22T00:52:38.861Z,19.40
2018-07-22T00:55:07.207Z,19.40
2018-07-22T00:57:35.339Z,19.50
2018-07-22T01:00:04.572Z,19.50
2018-07-22T01:02:33.544Z,19.40
2018-07-22T01:05:02.627Z,19.20
2018-07-22T01:07:31.104Z,19.30
2018-07-22T01:09:59.276Z,19.40
2018-07-22T01:12:27.274Z,19.20
2018-07-22T01:14:55.317Z,19.30
2018-07-22T01:17:24.473Z,19.20
2018-07-22T01:19:52.582Z,19.10
2018-07-22T01:22:21.490Z,19.20
2018-07-22T01:24:50.463Z,19.20
2018-07-22T01:27:19.092Z,19.20
2018-07-22T01:29:47.580Z,19.20
2018-07-22T01:32:18.468Z,19.10
2018-07-22T01:34:46.718Z,19.20
2018-07-22T01:37:16.816Z,19.10
2018-07-22T01:39:44.814Z,19.20
2018-07-22T01:42:12.931Z,19.10
2018-07-22T01:44:41.210Z,19.10
2018-07-22T01:47:10.395Z,19.00
2018-07-22T01:49:39.318Z,19.00
2018-07-22T01:52:08.927Z,18.80
2018-07-22T01:54:37.373Z,19.00
2018-07-22T01:57:05.947Z,19.00
2018-07-22T01:59:34.177Z,19.10
2018-07-22T02:02:02.473Z,19.00
2018-07-22T02:04:31.294Z,19.10
2018-07-22T02:06:59.773Z,19.10
2018-07-22T02:09:28.629Z,19.10
2018-07-22T02:11:56.577Z,19.00
2018-07-22T02:14:25.318Z,19.00
2018-07-22T02:16:53.595Z,19.00
2018-07-22T02:19:21.876Z,19.00
2018-07-22T02:21:50.153Z,19.00
2018-07-22T02:24:18.642Z,19.00
2018-07-22T02:26:46.901Z,19.00
2018-07-22T02:29:15.477Z,19.00
2018-07-22T02:31:45.235Z,19.10
2018-07-22T02:36:41.485Z,19.00
2018-07-22T02:39:11.707Z,19.10
2018-07-22T02:41:39.886Z,19.00
2018-07-22T02:44:08.233Z,18.90
2018-07-22T02:46:36.805Z,18.90
2018-07-22T02:49:05.650Z,18.80
2018-07-22T02:51:34.921Z,18.70
2018-07-22T02:54:03.130Z,18.80
2018-07-22T02:56:31.378Z,18.70
2018-07-22T02:59:03.118Z,18.70
2018-07-22T03:01:31.921Z,18.60
2018-07-22T03:04:01.363Z,18.70
2018-07-22T03:06:30.914Z,18.60
2018-07-22T03:08:59.246Z,18.60
2018-07-22T03:11:27.840Z,18.70
2018-07-22T03:13:56.325Z,18.70
2018-07-22T03:16:24.903Z,18.70
2018-07-22T03:18:52.865Z,18.80
2018-07-22T03:21:20.908Z,18.80
2018-07-22T03:23:49.145Z,18.80
2018-07-22T03:26:18.379Z,18.80
2018-07-22T03:28:46.460Z,18.90
2018-07-22T03:31:14.480Z,18.90
2018-07-22T03:33:42.673Z,19.00
2018-07-22T03:36:10.725Z,18.80
2018-07-22T03:38:39.048Z,18.80
2018-07-22T03:41:07.248Z,18.70
2018-07-22T03:43:35.323Z,18.70
2018-07-22T03:46:03.616Z,18.70
2018-07-22T03:48:31.668Z,18.70
2018-07-22T03:50:59.764Z,18.60
2018-07-22T03:53:27.857Z,18.60
2018-07-22T04:00:52.023Z,18.80
2018-07-22T04:04:49.774Z,18.70
2018-07-22T04:07:18.049Z,18.70
2018-07-22T04:09:47.737Z,18.60
2018-07-22T04:14:47.060Z,18.60
2018-07-22T04:17:15.296Z,18.70
2018-07-22T04:19:43.532Z,18.70
2018-07-22T04:22:11.564Z,18.60
2018-07-22T04:24:39.534Z,18.40
2018-07-22T04:27:10.121Z,18.50
2018-07-22T04:29:38.595Z,18.50
2018-07-22T04:32:06.989Z,18.60
2018-07-22T04:34:35.469Z,18.50
2018-07-22T04:37:04.402Z,18.50
2018-07-22T04:39:32.824Z,18.50
2018-07-22T04:42:01.051Z,18.50
2018-07-22T04:44:29.304Z,18.60
2018-07-22T04:46:57.577Z,18.70
2018-07-22T04:49:26.053Z,18.70
2018-07-22T04:51:55.425Z,18.70
2018-07-22T04:54:25.360Z,18.90
2018-07-22T04:56:54.354Z,18.90
2018-07-22T04:59:22.639Z,18.90
2018-07-22T05:01:51.450Z,18.90
2018-07-22T05:04:19.782Z,18.90
2018-07-22T05:06:49.241Z,18.90
2018-07-22T05:09:17.305Z,18.90
2018-07-22T05:11:46.088Z,18.80
2018-07-22T05:14:15.486Z,18.90
2018-07-22T05:16:48.384Z,18.90
2018-07-22T05:19:17.045Z,18.90
2018-07-22T05:21:45.362Z,19.00
2018-07-22T05:24:13.882Z,19.00
2018-07-22T05:26:41.916Z,19.10
2018-07-22T05:29:10.172Z,19.10
2018-07-22T05:31:38.648Z,19.10
2018-07-22T05:34:06.940Z,19.10
2018-07-22T05:36:36.340Z,19.10
2018-07-22T05:41:35.692Z,19.00
2018-07-22T05:44:04.245Z,18.90
2018-07-22T05:46:35.456Z,19.00
2018-07-22T05:49:05.381Z,19.20
2018-07-22T05:51:33.630Z,19.20
2018-07-22T05:54:01.729Z,19.30
2018-07-22T05:56:30.518Z,19.30
2018-07-22T05:58:59.764Z,19.30
2018-07-22T06:01:27.864Z,19.10
2018-07-22T06:03:56.217Z,19.00
2018-07-22T06:06:24.762Z,19.00
2018-07-22T06:08:52.764Z,19.00
2018-07-22T06:11:20.982Z,19.10
2018-07-22T06:13:49.320Z,18.90
2018-07-22T06:16:17.918Z,18.90
2018-07-22T06:18:48.697Z,19.00
2018-07-22T06:21:16.993Z,19.10
2018-07-22T06:23:45.986Z,19.10
2018-07-22T06:26:14.148Z,19.20
2018-07-22T06:28:42.164Z,19.20
2018-07-22T06:31:10.101Z,19.30
2018-07-22T06:33:38.825Z,19.30
2018-07-22T06:36:08.062Z,19.30
2018-07-22T06:38:36.334Z,19.30
2018-07-22T06:41:04.577Z,19.20
2018-07-22T06:43:32.724Z,19.20
2018-07-22T06:46:02.045Z,19.20
2018-07-22T06:48:30.007Z,19.30
2018-07-22T06:50:58.360Z,19.40
2018-07-22T06:53:26.348Z,19.40
2018-07-22T06:55:56.240Z,19.40
2018-07-22T07:00:54.595Z,19.30
2018-07-22T07:03:24.350Z,19.40
2018-07-22T07:05:53.417Z,19.40
2018-07-22T07:08:22.618Z,19.60
2018-07-22T07:10:50.662Z,19.60
2018-07-22T07:13:20.054Z,19.70
2018-07-22T07:15:51.965Z,19.70
2018-07-22T07:18:21.063Z,19.60
2018-07-22T07:20:50.285Z,19.70
2018-07-22T07:23:18.520Z,19.70
2018-07-22T07:25:47.409Z,19.80
2018-07-22T07:28:15.664Z,20.00
2018-07-22T07:30:43.770Z,20.10
2018-07-22T07:33:12.705Z,19.90
2018-07-22T07:35:40.938Z,19.90
2018-07-22T07:38:09.197Z,20.10
2018-07-22T07:40:37.182Z,20.20
2018-07-22T07:43:05.224Z,20.20
2018-07-22T07:45:33.266Z,20.10
2018-07-22T07:48:01.370Z,20.10
2018-07-22T07:50:29.445Z,20.00
2018-07-22T07:52:57.520Z,20.30
2018-07-22T07:55:27.804Z,20.50
2018-07-22T07:57:58.920Z,20.50
2018-07-22T08:00:26.991Z,20.90
2018-07-22T08:02:55.058Z,21.00
2018-07-22T08:05:23.827Z,21.30
2018-07-22T08:07:52.319Z,21.60
2018-07-22T08:10:20.725Z,21.80
2018-07-22T08:12:49.196Z,22.10
2018-07-22T08:15:17.317Z,22.50
2018-07-22T08:17:45.547Z,22.50
2018-07-22T08:20:15.354Z,22.40
2018-07-22T08:22:41.736Z,22.60
2018-07-22T08:25:09.992Z,22.50
2018-07-22T08:27:40.049Z,22.60
2018-07-22T08:30:08.332Z,22.60
2018-07-22T08:32:36.374Z,22.50
2018-07-22T08:35:04.539Z,22.10
2018-07-22T08:37:32.522Z,22.10
2018-07-22T08:40:00.679Z,22.20
2018-07-22T08:42:30.356Z,21.80
2018-07-22T08:44:58.699Z,21.70
2018-07-22T08:47:26.745Z,21.70
2018-07-22T08:49:54.824Z,21.60
2018-07-22T08:52:22.816Z,21.50
2018-07-22T08:54:51.001Z,21.40
2018-07-22T08:57:19.257Z,21.10
2018-07-22T08:59:47.713Z,21.20
2018-07-22T09:02:17.308Z,21.00
2018-07-22T09:04:45.731Z,20.90
2018-07-22T09:07:14.019Z,20.80
2018-07-22T09:09:42.321Z,20.70
2018-07-22T09:12:10.618Z,20.70
2018-07-22T09:14:39.007Z,20.90
2018-07-22T09:17:09.478Z,21.20
2018-07-22T09:19:37.681Z,21.20
2018-07-22T09:22:09.291Z,21.00
2018-07-22T09:24:37.296Z,21.40
2018-07-22T09:27:05.345Z,21.80
2018-07-22T09:29:33.355Z,21.40
2018-07-22T09:32:01.350Z,21.40
2018-07-22T09:34:29.696Z,21.60
2018-07-22T09:36:57.825Z,21.70
2018-07-22T09:39:26.835Z,22.20
2018-07-22T09:41:55.020Z,22.90
2018-07-22T09:44:23.317Z,23.00
2018-07-22T09:49:22.033Z,22.70
2018-07-22T09:51:50.737Z,23.00
2018-07-22T09:54:18.924Z,23.10
2018-07-22T09:56:46.937Z,22.60
2018-07-22T09:59:15.033Z,22.60
2018-07-22T10:01:43.502Z,22.60
2018-07-22T10:04:11.968Z,22.50
2018-07-22T10:06:40.630Z,22.20
2018-07-22T10:09:12.768Z,22.00
2018-07-22T10:11:41.778Z,22.40
2018-07-22T10:14:10.346Z,22.50
2018-07-22T10:16:40.262Z,22.60
2018-07-22T10:19:09.404Z,22.50
2018-07-22T10:21:37.468Z,22.20
2018-07-22T10:24:06.088Z,22.40
2018-07-22T10:26:36.088Z,22.20
2018-07-22T10:29:04.624Z,22.40
2018-07-22T10:31:34.825Z,22.80
2018-07-22T10:34:03.646Z,22.70
2018-07-22T10:36:32.296Z,22.40
2018-07-22T10:39:01.193Z,22.40
2018-07-22T10:41:32.453Z,22.30
2018-07-22T10:44:01.351Z,22.60
2018-07-22T10:46:29.387Z,22.80
2018-07-22T10:48:59.787Z,23.10
2018-07-22T10:51:28.476Z,23.50
2018-07-22T10:53:56.783Z,23.70
2018-07-22T10:56:32.170Z,23.80
2018-07-22T10:59:03.799Z,23.80
2018-07-22T11:01:32.146Z,23.80
2018-07-22T11:04:00.448Z,24.00
2018-07-22T11:06:31.250Z,23.80
2018-07-22T11:09:00.709Z,23.50
2018-07-22T11:11:30.318Z,23.60
2018-07-22T11:14:00.072Z,23.70
2018-07-22T11:16:29.857Z,23.80
2018-07-22T11:18:58.931Z,24.20
2018-07-22T11:21:28.546Z,24.10
2018-07-22T11:23:58.081Z,23.90
2018-07-22T11:26:27.037Z,23.60
2018-07-22T11:28:55.551Z,23.90
2018-07-22T11:31:24.329Z,24.20
2018-07-22T11:33:53.275Z,24.50
2018-07-22T11:36:22.612Z,24.60
2018-07-22T11:38:51.238Z,24.20
2018-07-22T11:41:20.416Z,24.40
2018-07-22T11:43:49.274Z,25.00
2018-07-22T11:46:18.550Z,24.90
2018-07-22T11:48:49.432Z,25.00
2018-07-22T11:51:17.472Z,24.50
2018-07-22T11:53:47.100Z,24.00
2018-07-22T11:56:17.215Z,24.40
2018-07-22T11:58:46.070Z,24.70
2018-07-22T12:01:15.806Z,24.90
2018-07-22T12:03:44.969Z,25.00
2018-07-22T12:06:13.287Z,24.30
2018-07-22T12:11:11.493Z,25.50
2018-07-22T12:13:39.744Z,25.70
2018-07-22T12:16:08.641Z,25.30
2018-07-22T12:18:37.717Z,24.70
2018-07-22T12:21:06.875Z,24.70
2018-07-22T12:23:35.090Z,24.30
2018-07-22T12:26:03.340Z,24.30
2018-07-22T12:28:32.634Z,24.30
2018-07-22T12:31:01.188Z,24.20
2018-07-22T12:33:30.126Z,24.50
2018-07-22T12:35:58.646Z,24.90
2018-07-22T12:38:27.068Z,25.20
2018-07-22T12:40:58.170Z,25.50
2018-07-22T12:43:26.419Z,25.50
2018-07-22T12:45:54.621Z,25.10
2018-07-22T12:48:24.660Z,25.50
2018-07-22T12:50:54.185Z,26.00
2018-07-22T12:53:27.402Z,25.70
2018-07-22T12:56:00.165Z,25.70
2018-07-22T12:58:29.383Z,25.50
2018-07-22T13:00:59.170Z,25.40
2018-07-22T13:03:27.620Z,25.00
2018-07-22T13:05:56.035Z,25.50
2018-07-22T13:08:26.901Z,25.40
2018-07-22T13:10:57.917Z,25.30
2018-07-22T13:13:29.847Z,25.20
2018-07-22T13:16:01.113Z,25.60
2018-07-22T13:18:33.641Z,25.60
2018-07-22T13:21:04.655Z,25.50
2018-07-22T13:23:37.847Z,25.70
2018-07-22T13:26:08.254Z,25.40
2018-07-22T13:28:39.101Z,25.40
2018-07-22T13:31:09.786Z,25.50
2018-07-22T13:33:40.289Z,25.30
2018-07-22T13:36:10.741Z,25.70
2018-07-22T13:38:39.161Z,26.10
2018-07-22T13:41:07.316Z,26.10
2018-07-22T13:43:35.318Z,26.00
2018-07-22T13:46:03.971Z,26.00
2018-07-22T13:48:32.196Z,26.10
2018-07-22T13:51:05.222Z,26.40
2018-07-22T13:53:33.413Z,26.20
2018-07-22T13:56:02.069Z,25.40
2018-07-22T13:58:30.309Z,25.70
2018-07-22T14:03:27.771Z,26.10
2018-07-22T14:08:24.683Z,25.90
2018-07-22T14:10:54.461Z,26.00
2018-07-22T14:13:23.601Z,25.90
2018-07-22T14:15:54.738Z,25.30
2018-07-22T14:18:27.683Z,25.70
2018-07-22T14:20:58.179Z,26.10
2018-07-22T14:23:29.997Z,25.70
2018-07-22T14:25:59.412Z,25.90
2018-07-22T14:28:30.884Z,26.00
2018-07-22T14:31:05.751Z,25.50
2018-07-22T14:33:34.714Z,25.70
2018-07-22T14:36:06.378Z,26.00
2018-07-22T14:38:35.143Z,26.00
2018-07-22T14:41:04.570Z,26.10
2018-07-22T14:43:48.609Z,26.10
2018-07-22T14:46:19.704Z,25.80
2018-07-22T14:48:48.607Z,25.40
2018-07-22T14:51:17.774Z,25.70
2018-07-22T14:53:46.453Z,25.90
2018-07-22T14:56:19.209Z,26.20
2018-07-22T14:58:48.405Z,26.10
2018-07-22T15:01:17.296Z,26.40
2018-07-22T15:03:45.609Z,26.10
2018-07-22T15:06:16.075Z,26.10
2018-07-22T15:08:49.616Z,26.30
2018-07-22T15:11:18.609Z,26.30
2018-07-22T15:13:48.750Z,26.20
2018-07-22T15:16:16.925Z,25.70
2018-07-22T15:18:47.532Z,25.90
2018-07-22T15:21:15.572Z,26.00
2018-07-22T15:23:45.720Z,26.00
2018-07-22T15:26:15.504Z,26.20
2018-07-22T15:31:12.824Z,26.10
2018-07-22T15:33:41.728Z,26.20
2018-07-22T15:36:11.805Z,26.30
2018-07-22T15:38:40.130Z,26.20
2018-07-22T15:41:08.348Z,26.20
2018-07-22T15:43:36.982Z,26.30
2018-07-22T15:46:05.957Z,26.10
2018-07-22T15:48:37.074Z,25.90
2018-07-22T15:51:06.405Z,25.90
2018-07-22T15:53:35.828Z,26.20
2018-07-22T15:56:04.510Z,26.40
2018-07-22T15:58:33.603Z,26.30
2018-07-22T16:01:03.296Z,26.40
2018-07-22T16:03:32.270Z,26.40
2018-07-22T16:06:01.125Z,26.50
2018-07-22T16:08:31.348Z,26.20
2018-07-22T16:10:59.549Z,26.40
2018-07-22T16:13:30.462Z,26.20
2018-07-22T16:15:59.266Z,26.20
2018-07-22T16:18:29.200Z,26.30
2018-07-22T16:20:58.960Z,26.40
2018-07-22T16:23:29.832Z,26.10
2018-07-22T16:25:58.813Z,26.00
2018-07-22T16:28:27.272Z,26.10
2018-07-22T16:30:57.359Z,25.80
2018-07-22T16:33:26.537Z,26.00
2018-07-22T16:35:58.837Z,25.70
2018-07-22T16:38:29.879Z,25.70
2018-07-22T16:40:58.164Z,26.00
2018-07-22T16:43:28.493Z,25.90
2018-07-22T16:45:57.042Z,25.70
2018-07-22T16:48:25.782Z,25.60
2018-07-22T16:50:55.363Z,25.50
2018-07-22T16:53:25.068Z,25.40
2018-07-22T16:55:55.609Z,25.40
2018-07-22T16:58:24.021Z,24.80
2018-07-22T17:00:52.745Z,24.90
2018-07-22T17:03:21.656Z,24.70
2018-07-22T17:05:50.039Z,24.60
2018-07-22T17:10:49.470Z,24.10
2018-07-22T17:13:17.904Z,24.30
2018-07-22T17:15:46.886Z,24.20
2018-07-22T17:18:16.705Z,24.10
2018-07-22T17:20:48.885Z,24.30
2018-07-22T17:23:17.161Z,24.20
2018-07-22T17:25:46.415Z,24.20
2018-07-22T17:28:15.853Z,24.00
2018-07-22T17:30:43.845Z,23.90
2018-07-22T17:33:16.425Z,24.10
2018-07-22T17:35:45.698Z,24.10
2018-07-22T17:38:14.608Z,24.20
2018-07-22T17:40:44.301Z,24.10
2018-07-22T17:43:14.368Z,24.10
2018-07-22T17:45:43.287Z,23.80
2018-07-22T17:48:14.911Z,23.90
2018-07-22T17:50:44.308Z,23.70
2018-07-22T17:53:14.063Z,23.70
2018-07-22T17:55:45.009Z,23.80
2018-07-22T17:58:14.610Z,23.70
2018-07-22T18:00:43.184Z,23.90
2018-07-22T18:03:32.310Z,23.90
2018-07-22T18:06:06.122Z,23.90
2018-07-22T18:08:35.654Z,23.60
2018-07-22T18:11:04.606Z,23.60
2018-07-22T18:16:02.496Z,23.40
2018-07-22T18:21:01.430Z,23.20
2018-07-22T18:23:30.910Z,23.20
2018-07-22T18:26:00.051Z,23.10
2018-07-22T18:28:31.545Z,23.20
2018-07-22T18:31:01.335Z,23.10
2018-07-22T18:33:30.843Z,23.10
2018-07-22T18:36:00.485Z,23.20
2018-07-22T18:38:35.979Z,23.30
2018-07-22T18:41:06.545Z,23.30
2018-07-22T18:43:38.043Z,23.10
2018-07-22T18:46:09.133Z,23.10
2018-07-22T18:48:39.678Z,23.10
2018-07-22T18:51:07.989Z,23.00
2018-07-22T18:53:36.213Z,22.90
2018-07-22T18:56:04.868Z,22.80
2018-07-22T18:58:33.347Z,22.80
2018-07-22T19:01:01.663Z,22.80
2018-07-22T19:05:58.761Z,22.60
2018-07-22T19:08:38.031Z,22.60
2018-07-22T19:11:06.886Z,22.70
2018-07-22T19:13:35.855Z,22.60
2018-07-22T19:16:05.097Z,22.50
2018-07-22T19:18:35.371Z,22.50
2018-07-22T19:21:03.673Z,22.50
2018-07-22T19:23:32.984Z,22.50
2018-07-22T19:26:16.998Z,22.50
2018-07-22T19:28:46.372Z,22.40
2018-07-22T19:31:16.102Z,22.30
2018-07-22T19:33:47.806Z,22.30
2018-07-22T19:36:18.664Z,22.20
2018-07-22T19:38:48.836Z,22.20
2018-07-22T19:41:17.018Z,22.20
2018-07-22T19:43:45.815Z,22.10
2018-07-22T19:46:16.760Z,22.10
2018-07-22T19:48:47.842Z,22.10
2018-07-22T19:51:19.244Z,22.10
2018-07-22T19:53:47.832Z,22.10
2018-07-22T19:56:16.991Z,22.00
2018-07-22T19:58:45.554Z,22.00
2018-07-22T20:01:15.094Z,22.00
2018-07-22T20:03:44.325Z,22.00
2018-07-22T20:06:13.610Z,21.90
2018-07-22T20:08:46.582Z,21.80
2018-07-22T20:11:17.080Z,21.70
2018-07-22T20:13:48.090Z,21.60
2018-07-22T20:16:17.162Z,21.60
2018-07-22T20:18:50.545Z,21.60
2018-07-22T20:21:22.589Z,21.70
2018-07-22T20:23:51.325Z,21.70
2018-07-22T20:26:27.810Z,21.70
2018-07-22T20:28:58.086Z,21.60
2018-07-22T20:31:26.541Z,21.50
2018-07-22T20:33:56.791Z,21.50
2018-07-22T20:36:27.117Z,21.40
2018-07-22T20:38:56.582Z,21.40
2018-07-22T20:41:25.614Z,21.40
2018-07-22T20:43:55.433Z,21.40
2018-07-22T20:46:25.556Z,21.50
2018-07-22T20:48:59.709Z,21.40
2018-07-22T20:51:28.497Z,21.40
2018-07-22T20:56:26.562Z,21.40
2018-07-22T20:58:56.041Z,21.50
2018-07-22T21:01:25.588Z,21.40
2018-07-22T21:06:29.808Z,21.30
2018-07-22T21:09:01.078Z,21.30
2018-07-22T21:11:52.090Z,21.20
2018-07-22T21:14:21.341Z,21.20
2018-07-22T21:16:54.071Z,21.20
2018-07-22T21:19:25.794Z,20.80
2018-07-22T21:21:55.583Z,20.70
2018-07-22T21:24:23.577Z,20.70
2018-07-22T21:26:56.800Z,20.50
2018-07-22T21:29:32.308Z,20.30
2018-07-22T21:32:03.335Z,20.30
2018-07-22T21:34:34.133Z,20.50
2018-07-22T21:37:05.713Z,20.40
2018-07-22T21:39:38.536Z,20.40
2018-07-22T21:42:06.756Z,20.30
2018-07-22T21:44:36.570Z,20.30
2018-07-22T21:47:05.566Z,20.30
2018-07-22T21:49:36.197Z,20.50
2018-07-22T21:52:05.395Z,20.40
2018-07-22T21:54:33.568Z,20.40
2018-07-22T21:57:01.840Z,20.40
2018-07-22T21:59:31.343Z,20.40
2018-07-22T22:02:00.243Z,20.40
2018-07-22T22:04:31.644Z,20.50
2018-07-22T22:07:02.933Z,20.60
2018-07-22T22:09:32.230Z,20.60
2018-07-22T22:12:00.609Z,20.50
2018-07-22T22:14:30.625Z,20.50
2018-07-22T22:17:00.711Z,20.40
2018-07-22T22:19:29.698Z,20.40
2018-07-22T22:21:59.976Z,20.40
2018-07-22T22:24:29.822Z,20.40
2018-07-22T22:26:58.088Z,20.40
2018-07-22T22:29:26.266Z,20.30
2018-07-22T22:31:54.417Z,20.30
2018-07-22T22:34:22.709Z,20.20
2018-07-22T22:36:50.885Z,20.10
2018-07-22T22:39:20.101Z,20.10
2018-07-22T22:41:50.760Z,20.10
2018-07-22T22:44:19.752Z,20.10
2018-07-22T22:46:47.916Z,20.10
2018-07-22T22:49:18.158Z,20.10
2018-07-22T22:51:47.598Z,20.10
2018-07-22T22:54:17.285Z,20.20
2018-07-22T22:56:46.363Z,20.20
2018-07-22T22:59:18.054Z,20.10
2018-07-22T23:01:46.970Z,20.10
2018-07-22T23:04:15.886Z,19.90
2018-07-22T23:06:44.628Z,19.80
2018-07-22T23:09:14.333Z,19.70
2018-07-22T23:11:43.340Z,19.60
2018-07-22T23:14:12.453Z,19.60
2018-07-22T23:16:40.717Z,19.50
2018-07-22T23:19:08.835Z,19.50
2018-07-22T23:21:37.383Z,19.50
2018-07-22T23:24:06.322Z,19.40
2018-07-22T23:26:35.704Z,19.40
2018-07-22T23:29:03.966Z,19.40
2018-07-22T23:31:31.962Z,19.40
2018-07-22T23:34:02.688Z,19.30
2018-07-22T23:36:31.860Z,19.40
2018-07-22T23:38:59.854Z,19.30
2018-07-22T23:41:28.185Z,19.30
2018-07-22T23:43:56.414Z,19.30
2018-07-22T23:46:24.765Z,19.30
2018-07-22T23:48:52.973Z,19.30
2018-07-22T23:51:21.757Z,19.30
2018-07-22T23:53:50.048Z,19.40
2018-07-22T23:56:18.428Z,19.40
